sensor_id;sensor_type;location;lat;lon;timestamp;P1;durP1;ratioP1;P2;durP2;ratioP2
42770;SDS011;28426;42.872;25.314;2023-11-21T00:01:05;12.88;;;6.68;;
42770;SDS011;28426;42.872;25.314;2023-11-21T00:03:36;14.20;;;6.30;;
42770;SDS011;28426;42.872;25.314;2023-11-21T00:06:10;11.85;;;5.78;;
42770;SDS011;28426;42.872;25.314;2023-11-21T00:08:41;11.73;;;5.55;;
42770;SDS011;28426;42.872;25.314;2023-11-21T00:11:12;15.52;;;6.28;;
42770;SDS011;28426;42.872;25.314;2023-11-21T00:13:43;14.48;;;6.88;;
42770;SDS011;28426;42.872;25.314;2023-11-21T00:16:16;17.10;;;6.57;;
42770;SDS011;28426;42.872;25.314;2023-11-21T00:18:49;12.38;;;6.43;;
42770;SDS011;28426;42.872;25.314;2023-11-21T00:21:23;16.50;;;7.72;;
42770;SDS011;28426;42.872;25.314;2023-11-21T00:23:53;15.88;;;7.22;;
42770;SDS011;28426;42.872;25.314;2023-11-21T00:26:24;9.70;;;5.18;;
42770;SDS011;28426;42.872;25.314;2023-11-21T00:29:01;9.40;;;5.22;;
42770;SDS011;28426;42.872;25.314;2023-11-21T00:31:35;10.77;;;4.90;;
42770;SDS011;28426;42.872;25.314;2023-11-21T00:34:06;8.63;;;4.85;;
42770;SDS011;28426;42.872;25.314;2023-11-21T00:36:39;10.77;;;5.25;;
42770;SDS011;28426;42.872;25.314;2023-11-21T00:39:10;10.05;;;4.15;;
42770;SDS011;28426;42.872;25.314;2023-11-21T00:41:41;9.27;;;4.70;;
42770;SDS011;28426;42.872;25.314;2023-11-21T00:44:12;9.57;;;4.05;;
42770;SDS011;28426;42.872;25.314;2023-11-21T00:46:43;10.48;;;5.97;;
42770;SDS011;28426;42.872;25.314;2023-11-21T00:49:14;10.55;;;5.28;;
42770;SDS011;28426;42.872;25.314;2023-11-21T00:51:47;12.75;;;6.95;;
42770;SDS011;28426;42.872;25.314;2023-11-21T00:54:18;11.43;;;6.38;;
42770;SDS011;28426;42.872;25.314;2023-11-21T00:56:50;13.73;;;6.85;;
42770;SDS011;28426;42.872;25.314;2023-11-21T00:59:21;12.95;;;6.30;;
42770;SDS011;28426;42.872;25.314;2023-11-21T01:01:53;7.20;;;3.38;;
42770;SDS011;28426;42.872;25.314;2023-11-21T01:04:27;7.13;;;3.83;;
42770;SDS011;28426;42.872;25.314;2023-11-21T01:07:01;7.65;;;3.70;;
42770;SDS011;28426;42.872;25.314;2023-11-21T01:09:32;7.53;;;3.47;;
42770;SDS011;28426;42.872;25.314;2023-11-21T01:12:04;9.02;;;3.78;;
42770;SDS011;28426;42.872;25.314;2023-11-21T01:14:35;8.10;;;3.25;;
42770;SDS011;28426;42.872;25.314;2023-11-21T01:17:05;8.18;;;3.70;;
42770;SDS011;28426;42.872;25.314;2023-11-21T01:19:36;5.75;;;3.00;;
42770;SDS011;28426;42.872;25.314;2023-11-21T01:22:10;8.10;;;3.85;;
42770;SDS011;28426;42.872;25.314;2023-11-21T01:24:41;9.07;;;3.67;;
42770;SDS011;28426;42.872;25.314;2023-11-21T01:27:12;8.10;;;3.70;;
42770;SDS011;28426;42.872;25.314;2023-11-21T01:29:44;7.88;;;3.58;;
42770;SDS011;28426;42.872;25.314;2023-11-21T01:32:15;7.82;;;3.65;;
42770;SDS011;28426;42.872;25.314;2023-11-21T01:34:45;7.78;;;3.38;;
42770;SDS011;28426;42.872;25.314;2023-11-21T01:37:20;8.30;;;4.00;;
42770;SDS011;28426;42.872;25.314;2023-11-21T01:39:51;6.50;;;3.08;;
42770;SDS011;28426;42.872;25.314;2023-11-21T01:42:22;6.28;;;2.95;;
42770;SDS011;28426;42.872;25.314;2023-11-21T01:44:56;6.25;;;2.50;;
42770;SDS011;28426;42.872;25.314;2023-11-21T01:47:27;7.10;;;3.50;;
42770;SDS011;28426;42.872;25.314;2023-11-21T01:49:59;8.55;;;4.18;;
42770;SDS011;28426;42.872;25.314;2023-11-21T01:52:34;8.25;;;3.95;;
42770;SDS011;28426;42.872;25.314;2023-11-21T01:55:07;9.63;;;4.18;;
42770;SDS011;28426;42.872;25.314;2023-11-21T01:57:47;9.50;;;3.88;;
42770;SDS011;28426;42.872;25.314;2023-11-21T02:00:18;9.52;;;3.97;;
42770;SDS011;28426;42.872;25.314;2023-11-21T02:02:51;7.07;;;3.13;;
42770;SDS011;28426;42.872;25.314;2023-11-21T02:05:22;6.57;;;3.15;;
42770;SDS011;28426;42.872;25.314;2023-11-21T02:07:56;7.00;;;2.28;;
42770;SDS011;28426;42.872;25.314;2023-11-21T02:10:28;7.70;;;3.60;;
42770;SDS011;28426;42.872;25.314;2023-11-21T02:12:59;7.25;;;3.00;;
42770;SDS011;28426;42.872;25.314;2023-11-21T02:15:30;7.38;;;3.00;;
42770;SDS011;28426;42.872;25.314;2023-11-21T02:18:01;7.43;;;3.38;;
42770;SDS011;28426;42.872;25.314;2023-11-21T02:20:33;7.30;;;3.30;;
42770;SDS011;28426;42.872;25.314;2023-11-21T02:23:08;7.07;;;3.80;;
42770;SDS011;28426;42.872;25.314;2023-11-21T02:25:40;5.95;;;2.75;;
42770;SDS011;28426;42.872;25.314;2023-11-21T02:28:11;6.78;;;2.65;;
42770;SDS011;28426;42.872;25.314;2023-11-21T02:30:43;5.97;;;2.80;;
42770;SDS011;28426;42.872;25.314;2023-11-21T02:33:22;6.80;;;3.17;;
42770;SDS011;28426;42.872;25.314;2023-11-21T02:35:53;8.43;;;4.03;;
42770;SDS011;28426;42.872;25.314;2023-11-21T02:38:26;12.00;;;4.25;;
42770;SDS011;28426;42.872;25.314;2023-11-21T02:40:57;8.07;;;3.85;;
42770;SDS011;28426;42.872;25.314;2023-11-21T02:43:28;9.15;;;4.10;;
42770;SDS011;28426;42.872;25.314;2023-11-21T02:45:59;13.52;;;4.35;;
42770;SDS011;28426;42.872;25.314;2023-11-21T02:48:30;8.43;;;3.78;;
42770;SDS011;28426;42.872;25.314;2023-11-21T02:51:01;8.25;;;3.63;;
42770;SDS011;28426;42.872;25.314;2023-11-21T02:53:35;10.45;;;3.20;;
42770;SDS011;28426;42.872;25.314;2023-11-21T02:56:07;8.77;;;4.00;;
42770;SDS011;28426;42.872;25.314;2023-11-21T02:58:41;9.75;;;4.78;;
42770;SDS011;28426;42.872;25.314;2023-11-21T03:01:12;10.07;;;3.70;;
42770;SDS011;28426;42.872;25.314;2023-11-21T03:03:44;6.10;;;3.30;;
42770;SDS011;28426;42.872;25.314;2023-11-21T03:06:18;8.13;;;3.10;;
42770;SDS011;28426;42.872;25.314;2023-11-21T03:08:52;5.80;;;2.47;;
42770;SDS011;28426;42.872;25.314;2023-11-21T03:11:23;7.68;;;2.95;;
42770;SDS011;28426;42.872;25.314;2023-11-21T03:13:53;7.95;;;2.40;;
42770;SDS011;28426;42.872;25.314;2023-11-21T03:16:24;5.75;;;2.25;;
42770;SDS011;28426;42.872;25.314;2023-11-21T03:18:56;4.00;;;1.80;;
42770;SDS011;28426;42.872;25.314;2023-11-21T03:21:27;4.28;;;1.80;;
42770;SDS011;28426;42.872;25.314;2023-11-21T03:24:00;3.88;;;1.80;;
42770;SDS011;28426;42.872;25.314;2023-11-21T03:26:31;6.95;;;2.30;;
42770;SDS011;28426;42.872;25.314;2023-11-21T03:29:02;6.15;;;2.88;;
42770;SDS011;28426;42.872;25.314;2023-11-21T03:31:33;6.75;;;3.33;;
42770;SDS011;28426;42.872;25.314;2023-11-21T03:34:04;7.28;;;2.80;;
42770;SDS011;28426;42.872;25.314;2023-11-21T03:36:35;5.90;;;3.08;;
42770;SDS011;28426;42.872;25.314;2023-11-21T03:39:08;5.55;;;2.22;;
42770;SDS011;28426;42.872;25.314;2023-11-21T03:41:39;5.55;;;2.20;;
42770;SDS011;28426;42.872;25.314;2023-11-21T03:44:10;5.75;;;2.60;;
42770;SDS011;28426;42.872;25.314;2023-11-21T03:46:40;5.57;;;2.03;;
42770;SDS011;28426;42.872;25.314;2023-11-21T03:49:11;5.43;;;1.83;;
42770;SDS011;28426;42.872;25.314;2023-11-21T03:51:42;5.72;;;2.28;;
42770;SDS011;28426;42.872;25.314;2023-11-21T03:54:16;7.25;;;2.42;;
42770;SDS011;28426;42.872;25.314;2023-11-21T03:56:46;6.68;;;2.45;;
42770;SDS011;28426;42.872;25.314;2023-11-21T03:59:17;4.78;;;2.22;;
42770;SDS011;28426;42.872;25.314;2023-11-21T04:01:48;5.28;;;2.40;;
42770;SDS011;28426;42.872;25.314;2023-11-21T04:04:18;5.88;;;2.50;;
42770;SDS011;28426;42.872;25.314;2023-11-21T04:06:49;7.50;;;3.53;;
42770;SDS011;28426;42.872;25.314;2023-11-21T04:09:24;8.35;;;2.78;;
42770;SDS011;28426;42.872;25.314;2023-11-21T04:11:55;9.50;;;4.63;;
42770;SDS011;28426;42.872;25.314;2023-11-21T04:14:26;7.03;;;2.92;;
42770;SDS011;28426;42.872;25.314;2023-11-21T04:16:57;6.10;;;2.97;;
42770;SDS011;28426;42.872;25.314;2023-11-21T04:19:28;7.20;;;3.60;;
42770;SDS011;28426;42.872;25.314;2023-11-21T04:21:59;6.63;;;2.88;;
42770;SDS011;28426;42.872;25.314;2023-11-21T04:24:32;7.18;;;2.20;;
42770;SDS011;28426;42.872;25.314;2023-11-21T04:27:03;8.32;;;3.58;;
42770;SDS011;28426;42.872;25.314;2023-11-21T04:29:33;13.02;;;4.93;;
42770;SDS011;28426;42.872;25.314;2023-11-21T04:32:05;9.93;;;4.20;;
42770;SDS011;28426;42.872;25.314;2023-11-21T04:34:36;7.60;;;3.95;;
42770;SDS011;28426;42.872;25.314;2023-11-21T04:37:09;8.48;;;3.33;;
42770;SDS011;28426;42.872;25.314;2023-11-21T04:39:42;10.52;;;3.92;;
42770;SDS011;28426;42.872;25.314;2023-11-21T04:42:12;9.55;;;3.30;;
42770;SDS011;28426;42.872;25.314;2023-11-21T04:44:43;6.78;;;3.10;;
42770;SDS011;28426;42.872;25.314;2023-11-21T04:47:14;6.10;;;2.80;;
42770;SDS011;28426;42.872;25.314;2023-11-21T04:49:46;6.75;;;3.28;;
42770;SDS011;28426;42.872;25.314;2023-11-21T04:52:17;6.05;;;2.90;;
42770;SDS011;28426;42.872;25.314;2023-11-21T04:54:51;6.57;;;2.95;;
42770;SDS011;28426;42.872;25.314;2023-11-21T04:57:24;6.53;;;2.80;;
42770;SDS011;28426;42.872;25.314;2023-11-21T04:59:55;8.48;;;2.50;;
42770;SDS011;28426;42.872;25.314;2023-11-21T05:02:26;6.90;;;2.67;;
42770;SDS011;28426;42.872;25.314;2023-11-21T05:05:02;9.38;;;2.83;;
42770;SDS011;28426;42.872;25.314;2023-11-21T05:07:34;6.45;;;3.33;;
42770;SDS011;28426;42.872;25.314;2023-11-21T05:10:08;8.32;;;4.00;;
42770;SDS011;28426;42.872;25.314;2023-11-21T05:12:42;11.93;;;4.75;;
42770;SDS011;28426;42.872;25.314;2023-11-21T05:15:14;10.48;;;4.43;;
42770;SDS011;28426;42.872;25.314;2023-11-21T05:17:45;9.38;;;4.47;;
42770;SDS011;28426;42.872;25.314;2023-11-21T05:20:17;13.80;;;5.78;;
42770;SDS011;28426;42.872;25.314;2023-11-21T05:22:48;9.02;;;5.00;;
42770;SDS011;28426;42.872;25.314;2023-11-21T05:25:21;10.82;;;5.20;;
42770;SDS011;28426;42.872;25.314;2023-11-21T05:27:52;11.88;;;6.15;;
42770;SDS011;28426;42.872;25.314;2023-11-21T05:30:23;14.18;;;6.50;;
42770;SDS011;28426;42.872;25.314;2023-11-21T05:32:54;15.70;;;8.77;;
42770;SDS011;28426;42.872;25.314;2023-11-21T05:35:24;15.65;;;7.50;;
42770;SDS011;28426;42.872;25.314;2023-11-21T05:37:55;13.82;;;6.97;;
42770;SDS011;28426;42.872;25.314;2023-11-21T05:40:29;15.00;;;8.27;;
42770;SDS011;28426;42.872;25.314;2023-11-21T05:43:00;12.20;;;7.10;;
42770;SDS011;28426;42.872;25.314;2023-11-21T05:45:32;12.52;;;5.70;;
42770;SDS011;28426;42.872;25.314;2023-11-21T05:48:03;11.38;;;5.93;;
42770;SDS011;28426;42.872;25.314;2023-11-21T05:50:34;9.13;;;4.20;;
42770;SDS011;28426;42.872;25.314;2023-11-21T05:53:05;26.15;;;9.77;;
42770;SDS011;28426;42.872;25.314;2023-11-21T05:55:40;11.20;;;4.78;;
42770;SDS011;28426;42.872;25.314;2023-11-21T05:58:10;8.88;;;4.57;;
42770;SDS011;28426;42.872;25.314;2023-11-21T06:00:42;14.35;;;6.78;;
42770;SDS011;28426;42.872;25.314;2023-11-21T06:03:12;16.65;;;6.05;;
42770;SDS011;28426;42.872;25.314;2023-11-21T06:05:44;18.85;;;7.15;;
42770;SDS011;28426;42.872;25.314;2023-11-21T06:08:15;17.65;;;8.25;;
42770;SDS011;28426;42.872;25.314;2023-11-21T06:10:49;17.75;;;7.75;;
42770;SDS011;28426;42.872;25.314;2023-11-21T06:13:19;16.92;;;7.90;;
42770;SDS011;28426;42.872;25.314;2023-11-21T06:15:51;14.48;;;7.43;;
42770;SDS011;28426;42.872;25.314;2023-11-21T06:18:22;16.42;;;7.60;;
42770;SDS011;28426;42.872;25.314;2023-11-21T06:20:53;19.35;;;8.52;;
42770;SDS011;28426;42.872;25.314;2023-11-21T06:23:23;16.27;;;8.85;;
42770;SDS011;28426;42.872;25.314;2023-11-21T06:25:57;21.77;;;9.50;;
42770;SDS011;28426;42.872;25.314;2023-11-21T06:28:28;22.05;;;10.20;;
42770;SDS011;28426;42.872;25.314;2023-11-21T06:30:59;19.95;;;10.60;;
42770;SDS011;28426;42.872;25.314;2023-11-21T06:33:32;27.70;;;14.23;;
42770;SDS011;28426;42.872;25.314;2023-11-21T06:36:03;26.42;;;15.02;;
42770;SDS011;28426;42.872;25.314;2023-11-21T06:38:34;26.55;;;13.77;;
42770;SDS011;28426;42.872;25.314;2023-11-21T06:41:08;18.75;;;9.63;;
42770;SDS011;28426;42.872;25.314;2023-11-21T06:43:41;15.80;;;8.27;;
42770;SDS011;28426;42.872;25.314;2023-11-21T06:46:13;14.75;;;7.90;;
42770;SDS011;28426;42.872;25.314;2023-11-21T06:48:45;14.95;;;8.80;;
42770;SDS011;28426;42.872;25.314;2023-11-21T06:51:16;17.60;;;10.52;;
42770;SDS011;28426;42.872;25.314;2023-11-21T06:53:47;22.00;;;10.00;;
42770;SDS011;28426;42.872;25.314;2023-11-21T06:56:21;24.77;;;10.65;;
42770;SDS011;28426;42.872;25.314;2023-11-21T06:58:52;19.60;;;9.68;;
42770;SDS011;28426;42.872;25.314;2023-11-21T07:01:24;15.85;;;8.93;;
42770;SDS011;28426;42.872;25.314;2023-11-21T07:03:54;13.20;;;7.95;;
42770;SDS011;28426;42.872;25.314;2023-11-21T07:06:25;17.15;;;9.45;;
42770;SDS011;28426;42.872;25.314;2023-11-21T07:08:56;18.65;;;10.50;;
42770;SDS011;28426;42.872;25.314;2023-11-21T07:11:31;21.83;;;10.15;;
42770;SDS011;28426;42.872;25.314;2023-11-21T07:14:01;29.63;;;14.00;;
42770;SDS011;28426;42.872;25.314;2023-11-21T07:16:34;24.15;;;12.90;;
42770;SDS011;28426;42.872;25.314;2023-11-21T07:19:05;16.95;;;10.27;;
42770;SDS011;28426;42.872;25.314;2023-11-21T07:21:37;17.30;;;7.75;;
42770;SDS011;28426;42.872;25.314;2023-11-21T07:24:09;11.40;;;6.65;;
42770;SDS011;28426;42.872;25.314;2023-11-21T07:26:42;10.40;;;5.93;;
42770;SDS011;28426;42.872;25.314;2023-11-21T07:29:13;10.90;;;6.35;;
42770;SDS011;28426;42.872;25.314;2023-11-21T07:31:44;9.65;;;5.40;;
42770;SDS011;28426;42.872;25.314;2023-11-21T07:34:15;9.82;;;5.97;;
42770;SDS011;28426;42.872;25.314;2023-11-21T07:36:45;12.63;;;5.90;;
42770;SDS011;28426;42.872;25.314;2023-11-21T07:39:16;11.15;;;5.25;;
42770;SDS011;28426;42.872;25.314;2023-11-21T07:41:50;16.35;;;7.05;;
42770;SDS011;28426;42.872;25.314;2023-11-21T07:44:21;10.77;;;6.18;;
42770;SDS011;28426;42.872;25.314;2023-11-21T07:46:52;10.30;;;4.82;;
42770;SDS011;28426;42.872;25.314;2023-11-21T07:49:24;13.35;;;6.43;;
42770;SDS011;28426;42.872;25.314;2023-11-21T07:51:55;13.40;;;6.68;;
42770;SDS011;28426;42.872;25.314;2023-11-21T07:54:26;18.80;;;7.60;;
42770;SDS011;28426;42.872;25.314;2023-11-21T07:57:00;12.38;;;5.78;;
42770;SDS011;28426;42.872;25.314;2023-11-21T07:59:31;13.75;;;5.90;;
42770;SDS011;28426;42.872;25.314;2023-11-21T08:02:02;11.10;;;5.28;;
42770;SDS011;28426;42.872;25.314;2023-11-21T08:04:33;9.98;;;4.82;;
42770;SDS011;28426;42.872;25.314;2023-11-21T08:07:04;10.60;;;5.38;;
42770;SDS011;28426;42.872;25.314;2023-11-21T08:09:34;9.02;;;5.00;;
42770;SDS011;28426;42.872;25.314;2023-11-21T08:12:08;11.10;;;5.88;;
42770;SDS011;28426;42.872;25.314;2023-11-21T08:14:39;15.57;;;6.78;;
42770;SDS011;28426;42.872;25.314;2023-11-21T08:17:10;16.20;;;6.93;;
42770;SDS011;28426;42.872;25.314;2023-11-21T08:19:44;11.90;;;6.38;;
42770;SDS011;28426;42.872;25.314;2023-11-21T08:22:16;13.52;;;7.90;;
42770;SDS011;28426;42.872;25.314;2023-11-21T08:24:47;18.60;;;7.75;;
42770;SDS011;28426;42.872;25.314;2023-11-21T08:27:21;15.55;;;7.72;;
42770;SDS011;28426;42.872;25.314;2023-11-21T08:29:52;14.40;;;5.82;;
42770;SDS011;28426;42.872;25.314;2023-11-21T08:32:24;7.18;;;3.65;;
42770;SDS011;28426;42.872;25.314;2023-11-21T08:34:55;10.88;;;3.67;;
42770;SDS011;28426;42.872;25.314;2023-11-21T08:37:26;4.07;;;2.05;;
42770;SDS011;28426;42.872;25.314;2023-11-21T08:39:57;5.28;;;2.67;;
42770;SDS011;28426;42.872;25.314;2023-11-21T08:42:32;5.07;;;1.85;;
42770;SDS011;28426;42.872;25.314;2023-11-21T08:45:03;1.73;;;0.70;;
42770;SDS011;28426;42.872;25.314;2023-11-21T08:47:36;1.77;;;0.63;;
42770;SDS011;28426;42.872;25.314;2023-11-21T08:50:07;2.45;;;0.80;;
42770;SDS011;28426;42.872;25.314;2023-11-21T08:52:39;2.60;;;0.98;;
42770;SDS011;28426;42.872;25.314;2023-11-21T08:55:10;4.00;;;0.80;;
42770;SDS011;28426;42.872;25.314;2023-11-21T08:57:45;2.80;;;0.88;;
42770;SDS011;28426;42.872;25.314;2023-11-21T09:00:16;4.28;;;1.10;;
42770;SDS011;28426;42.872;25.314;2023-11-21T09:02:49;5.90;;;2.35;;
42770;SDS011;28426;42.872;25.314;2023-11-21T09:05:19;5.07;;;1.70;;
42770;SDS011;28426;42.872;25.314;2023-11-21T09:07:50;5.35;;;1.92;;
42770;SDS011;28426;42.872;25.314;2023-11-21T09:10:21;2.40;;;1.10;;
42770;SDS011;28426;42.872;25.314;2023-11-21T09:12:55;2.05;;;0.80;;
42770;SDS011;28426;42.872;25.314;2023-11-21T09:15:26;3.63;;;1.20;;
42770;SDS011;28426;42.872;25.314;2023-11-21T09:17:57;4.63;;;1.30;;
42770;SDS011;28426;42.872;25.314;2023-11-21T09:20:29;3.75;;;1.38;;
42770;SDS011;28426;42.872;25.314;2023-11-21T09:22:59;4.18;;;1.13;;
42770;SDS011;28426;42.872;25.314;2023-11-21T09:25:30;2.55;;;0.90;;
42770;SDS011;28426;42.872;25.314;2023-11-21T09:28:04;2.70;;;0.90;;
42770;SDS011;28426;42.872;25.314;2023-11-21T09:33:07;2.70;;;1.05;;
42770;SDS011;28426;42.872;25.314;2023-11-21T09:35:38;2.95;;;1.20;;
42770;SDS011;28426;42.872;25.314;2023-11-21T09:38:11;2.78;;;1.20;;
42770;SDS011;28426;42.872;25.314;2023-11-21T09:40:41;2.85;;;1.30;;
42770;SDS011;28426;42.872;25.314;2023-11-21T09:43:17;3.25;;;1.30;;
42770;SDS011;28426;42.872;25.314;2023-11-21T09:45:51;3.05;;;1.52;;
42770;SDS011;28426;42.872;25.314;2023-11-21T09:48:27;4.28;;;2.15;;
42770;SDS011;28426;42.872;25.314;2023-11-21T09:50:59;5.25;;;1.38;;
42770;SDS011;28426;42.872;25.314;2023-11-21T09:53:31;2.20;;;0.95;;
42770;SDS011;28426;42.872;25.314;2023-11-21T09:56:03;7.95;;;4.80;;
42770;SDS011;28426;42.872;25.314;2023-11-21T09:58:38;2.50;;;1.15;;
42770;SDS011;28426;42.872;25.314;2023-11-21T10:01:10;4.25;;;1.30;;
42770;SDS011;28426;42.872;25.314;2023-11-21T10:03:43;7.15;;;1.30;;
42770;SDS011;28426;42.872;25.314;2023-11-21T10:06:14;3.63;;;1.30;;
42770;SDS011;28426;42.872;25.314;2023-11-21T10:08:47;3.28;;;1.45;;
42770;SDS011;28426;42.872;25.314;2023-11-21T10:11:22;3.05;;;0.90;;
42770;SDS011;28426;42.872;25.314;2023-11-21T10:13:57;2.13;;;0.95;;
42770;SDS011;28426;42.872;25.314;2023-11-21T10:16:31;2.38;;;0.85;;
42770;SDS011;28426;42.872;25.314;2023-11-21T10:19:03;2.67;;;1.27;;
42770;SDS011;28426;42.872;25.314;2023-11-21T10:21:38;2.40;;;1.05;;
42770;SDS011;28426;42.872;25.314;2023-11-21T10:24:09;1.88;;;1.00;;
42770;SDS011;28426;42.872;25.314;2023-11-21T10:26:40;2.35;;;0.85;;
42770;SDS011;28426;42.872;25.314;2023-11-21T10:29:22;3.20;;;0.90;;
42770;SDS011;28426;42.872;25.314;2023-11-21T10:31:54;2.17;;;1.00;;
42770;SDS011;28426;42.872;25.314;2023-11-21T10:34:26;1.98;;;0.82;;
42770;SDS011;28426;42.872;25.314;2023-11-21T10:36:57;2.80;;;1.40;;
42770;SDS011;28426;42.872;25.314;2023-11-21T10:39:28;5.15;;;2.33;;
42770;SDS011;28426;42.872;25.314;2023-11-21T10:41:58;4.35;;;1.73;;
42770;SDS011;28426;42.872;25.314;2023-11-21T10:44:32;3.72;;;1.92;;
42770;SDS011;28426;42.872;25.314;2023-11-21T10:47:05;5.60;;;2.03;;
42770;SDS011;28426;42.872;25.314;2023-11-21T10:49:39;5.30;;;2.28;;
42770;SDS011;28426;42.872;25.314;2023-11-21T10:52:09;3.53;;;1.55;;
42770;SDS011;28426;42.872;25.314;2023-11-21T10:54:44;3.85;;;1.48;;
42770;SDS011;28426;42.872;25.314;2023-11-21T10:57:17;7.57;;;4.00;;
42770;SDS011;28426;42.872;25.314;2023-11-21T10:59:53;4.40;;;1.90;;
42770;SDS011;28426;42.872;25.314;2023-11-21T11:02:25;6.85;;;3.25;;
42770;SDS011;28426;42.872;25.314;2023-11-21T11:04:59;5.60;;;2.85;;
42770;SDS011;28426;42.872;25.314;2023-11-21T11:07:33;4.25;;;1.80;;
42770;SDS011;28426;42.872;25.314;2023-11-21T11:10:06;9.15;;;2.92;;
42770;SDS011;28426;42.872;25.314;2023-11-21T11:12:41;6.72;;;3.72;;
42770;SDS011;28426;42.872;25.314;2023-11-21T11:15:15;6.63;;;3.78;;
42770;SDS011;28426;42.872;25.314;2023-11-21T11:17:46;6.97;;;3.13;;
42770;SDS011;28426;42.872;25.314;2023-11-21T11:20:18;6.47;;;3.03;;
42770;SDS011;28426;42.872;25.314;2023-11-21T11:22:54;9.05;;;2.60;;
42770;SDS011;28426;42.872;25.314;2023-11-21T11:25:49;3.42;;;1.50;;
42770;SDS011;28426;42.872;25.314;2023-11-21T11:28:33;3.55;;;1.50;;
42770;SDS011;28426;42.872;25.314;2023-11-21T11:31:18;5.22;;;2.10;;
42770;SDS011;28426;42.872;25.314;2023-11-21T11:33:57;4.40;;;1.42;;
42770;SDS011;28426;42.872;25.314;2023-11-21T11:36:36;4.22;;;1.83;;
42770;SDS011;28426;42.872;25.314;2023-11-21T11:42:06;8.32;;;4.60;;
42770;SDS011;28426;42.872;25.314;2023-11-21T11:44:50;8.60;;;3.58;;
42770;SDS011;28426;42.872;25.314;2023-11-21T11:47:27;8.70;;;4.35;;
42770;SDS011;28426;42.872;25.314;2023-11-21T11:50:03;6.40;;;2.78;;
42770;SDS011;28426;42.872;25.314;2023-11-21T11:52:40;11.32;;;5.22;;
42770;SDS011;28426;42.872;25.314;2023-11-21T11:55:12;14.38;;;6.93;;
42770;SDS011;28426;42.872;25.314;2023-11-21T11:57:46;10.77;;;4.97;;
42770;SDS011;28426;42.872;25.314;2023-11-21T12:00:37;13.25;;;6.78;;
42770;SDS011;28426;42.872;25.314;2023-11-21T12:03:13;7.57;;;3.15;;
42770;SDS011;28426;42.872;25.314;2023-11-21T12:05:44;4.18;;;1.73;;
42770;SDS011;28426;42.872;25.314;2023-11-21T12:08:20;6.10;;;2.40;;
42770;SDS011;28426;42.872;25.314;2023-11-21T12:10:58;4.40;;;1.65;;
42770;SDS011;28426;42.872;25.314;2023-11-21T12:13:29;4.20;;;2.15;;
42770;SDS011;28426;42.872;25.314;2023-11-21T12:16:03;4.75;;;1.67;;
42770;SDS011;28426;42.872;25.314;2023-11-21T12:18:37;6.00;;;1.90;;
42770;SDS011;28426;42.872;25.314;2023-11-21T12:21:08;6.05;;;1.85;;
42770;SDS011;28426;42.872;25.314;2023-11-21T12:23:39;5.72;;;2.28;;
42770;SDS011;28426;42.872;25.314;2023-11-21T12:26:10;4.35;;;2.10;;
42770;SDS011;28426;42.872;25.314;2023-11-21T12:28:40;5.65;;;2.28;;
42770;SDS011;28426;42.872;25.314;2023-11-21T12:31:12;5.25;;;1.80;;
42770;SDS011;28426;42.872;25.314;2023-11-21T12:33:51;6.50;;;2.40;;
42770;SDS011;28426;42.872;25.314;2023-11-21T12:36:26;5.10;;;2.38;;
42770;SDS011;28426;42.872;25.314;2023-11-21T12:38:57;4.38;;;2.10;;
42770;SDS011;28426;42.872;25.314;2023-11-21T12:41:29;5.07;;;1.80;;
42770;SDS011;28426;42.872;25.314;2023-11-21T12:44:00;3.83;;;1.90;;
42770;SDS011;28426;42.872;25.314;2023-11-21T12:46:31;2.92;;;1.60;;
42770;SDS011;28426;42.872;25.314;2023-11-21T12:49:05;5.03;;;1.63;;
42770;SDS011;28426;42.872;25.314;2023-11-21T12:51:37;4.82;;;2.08;;
42770;SDS011;28426;42.872;25.314;2023-11-21T12:54:08;7.55;;;2.20;;
42770;SDS011;28426;42.872;25.314;2023-11-21T12:56:39;4.72;;;1.65;;
42770;SDS011;28426;42.872;25.314;2023-11-21T12:59:10;4.05;;;1.83;;
42770;SDS011;28426;42.872;25.314;2023-11-21T13:01:46;5.70;;;2.53;;
42770;SDS011;28426;42.872;25.314;2023-11-21T13:04:21;5.15;;;2.30;;
42770;SDS011;28426;42.872;25.314;2023-11-21T13:07:06;7.30;;;1.75;;
42770;SDS011;28426;42.872;25.314;2023-11-21T13:09:42;5.32;;;2.58;;
42770;SDS011;28426;42.872;25.314;2023-11-21T13:12:12;4.75;;;1.95;;
42770;SDS011;28426;42.872;25.314;2023-11-21T13:14:45;4.70;;;2.28;;
42770;SDS011;28426;42.872;25.314;2023-11-21T13:17:16;5.45;;;2.47;;
42770;SDS011;28426;42.872;25.314;2023-11-21T13:19:54;6.78;;;2.60;;
42770;SDS011;28426;42.872;25.314;2023-11-21T13:22:25;4.55;;;1.98;;
42770;SDS011;28426;42.872;25.314;2023-11-21T13:24:55;4.03;;;2.05;;
42770;SDS011;28426;42.872;25.314;2023-11-21T13:27:26;6.35;;;2.20;;
42770;SDS011;28426;42.872;25.314;2023-11-21T13:29:58;5.97;;;2.75;;
42770;SDS011;28426;42.872;25.314;2023-11-21T13:32:29;6.30;;;2.58;;
42770;SDS011;28426;42.872;25.314;2023-11-21T13:35:03;4.80;;;2.10;;
42770;SDS011;28426;42.872;25.314;2023-11-21T13:37:39;4.75;;;2.00;;
42770;SDS011;28426;42.872;25.314;2023-11-21T13:40:12;5.80;;;1.92;;
42770;SDS011;28426;42.872;25.314;2023-11-21T13:42:47;4.65;;;2.25;;
42770;SDS011;28426;42.872;25.314;2023-11-21T13:45:21;6.00;;;1.90;;
42770;SDS011;28426;42.872;25.314;2023-11-21T13:47:53;4.70;;;2.00;;
42770;SDS011;28426;42.872;25.314;2023-11-21T13:50:28;7.40;;;1.70;;
42770;SDS011;28426;42.872;25.314;2023-11-21T13:53:01;4.97;;;1.85;;
42770;SDS011;28426;42.872;25.314;2023-11-21T13:55:44;8.30;;;2.10;;
42770;SDS011;28426;42.872;25.314;2023-11-21T13:58:16;6.35;;;1.70;;
42770;SDS011;28426;42.872;25.314;2023-11-21T14:00:51;3.10;;;1.60;;
42770;SDS011;28426;42.872;25.314;2023-11-21T14:03:25;5.05;;;1.90;;
42770;SDS011;28426;42.872;25.314;2023-11-21T14:06:10;4.78;;;2.17;;
42770;SDS011;28426;42.872;25.314;2023-11-21T14:08:48;6.82;;;2.50;;
42770;SDS011;28426;42.872;25.314;2023-11-21T14:11:20;6.97;;;2.42;;
42770;SDS011;28426;42.872;25.314;2023-11-21T14:13:56;9.18;;;2.13;;
42770;SDS011;28426;42.872;25.314;2023-11-21T14:16:27;5.65;;;2.90;;
42770;SDS011;28426;42.872;25.314;2023-11-21T14:18:58;5.90;;;2.90;;
42770;SDS011;28426;42.872;25.314;2023-11-21T14:21:39;8.50;;;2.85;;
42770;SDS011;28426;42.872;25.314;2023-11-21T14:24:11;4.40;;;2.20;;
42770;SDS011;28426;42.872;25.314;2023-11-21T14:26:45;6.47;;;2.50;;
42770;SDS011;28426;42.872;25.314;2023-11-21T14:29:18;3.80;;;1.83;;
42770;SDS011;28426;42.872;25.314;2023-11-21T14:31:51;4.43;;;1.98;;
42770;SDS011;28426;42.872;25.314;2023-11-21T14:34:24;5.20;;;2.20;;
42770;SDS011;28426;42.872;25.314;2023-11-21T14:36:57;5.20;;;2.35;;
42770;SDS011;28426;42.872;25.314;2023-11-21T14:39:30;5.45;;;2.50;;
42770;SDS011;28426;42.872;25.314;2023-11-21T14:42:07;6.97;;;2.10;;
42770;SDS011;28426;42.872;25.314;2023-11-21T14:44:38;8.70;;;4.05;;
42770;SDS011;28426;42.872;25.314;2023-11-21T14:47:10;6.75;;;2.65;;
42770;SDS011;28426;42.872;25.314;2023-11-21T14:49:45;4.90;;;2.25;;
42770;SDS011;28426;42.872;25.314;2023-11-21T14:52:26;6.53;;;2.30;;
42770;SDS011;28426;42.872;25.314;2023-11-21T14:55:10;5.22;;;2.40;;
42770;SDS011;28426;42.872;25.314;2023-11-21T14:57:58;5.47;;;2.20;;
42770;SDS011;28426;42.872;25.314;2023-11-21T15:00:31;8.77;;;4.03;;
42770;SDS011;28426;42.872;25.314;2023-11-21T15:03:12;5.00;;;2.25;;
42770;SDS011;28426;42.872;25.314;2023-11-21T15:06:02;6.93;;;2.65;;
42770;SDS011;28426;42.872;25.314;2023-11-21T15:08:52;8.57;;;4.53;;